Time;durP1;ratioP1;P1;durP2;ratioP2;P2;SDS_P1;SDS_P2;PMS_P1;PMS_P2;Temp;Humidity;BMP_temperature;BMP_pressure;BME280_temperature;BME280_humidity;BME280_pressure;Samples;Min_cycle;Max_cycle;Signal;HPM_P1;HPM_P2
2021/07/08 00:01:58;;;;;;;;;;;;;;;;;;5091177;28;19908;-77
2021/07/08 00:04:23;;;;;;;;;;;;;;;;;;5088557;28;20277;-77
2021/07/08 00:06:49;;;;;;;;;;;;;;;;;;5091207;28;19908;-77
2021/07/08 00:09:15;;;;;;;;;;;;;;;;;;5088967;28;19967;-78
2021/07/08 00:11:41;;;;;;;;;;;;;;;;;;5090216;28;19919;-78
2021/07/08 00:14:07;;;;;;;;;;;;;;;;;;5089428;28;19942;-78
2021/07/08 00:16:33;;;;;;;;;;;;;;;;;;5090846;28;19982;-77
2021/07/08 00:18:59;;;;;;;;;;;;;;;;;;5088705;28;19916;-78
2021/07/08 00:21:25;;;;;;;;;;;;;;;;;;5089693;28;19977;-77
2021/07/08 00:23:50;;;;;;;;;;;;;;;;;;5090851;28;19943;-78
2021/07/08 00:26:16;;;;;;;;;;;;;;;;;;5090239;28;19943;-78
2021/07/08 00:28:42;;;;;;;;;;;;;;;;;;5091058;28;19909;-77
2021/07/08 00:31:08;;;;;;;;;;;;;;;;;;5090894;28;19908;-77
2021/07/08 00:33:34;;;;;;;;;;;;;;;;;;5090092;28;20364;-76
2021/07/08 00:36:00;;;;;;;;;;;;;;;;;;5093477;28;20006;-77
2021/07/08 00:38:26;;;;;;;;;;;;;;;;;;5095017;28;20006;-77
2021/07/08 00:40:52;;;;;;;;;;;;;;;;;;5093829;28;19965;-78
2021/07/08 00:43:18;;;;;;;;;;;;;;;;;;5094455;28;19966;-77
2021/07/08 00:45:44;;;;;;;;;;;;;;;;;;5094128;27;19912;-77
2021/07/08 00:48:10;;;;;;;;;;;;;;;;;;5093378;28;19908;-77
2021/07/08 00:50:36;;;;;;;;;;;;;;;;;;5094504;28;19915;-78
2021/07/08 00:53:01;;;;;;;;;;;;;;;;;;5093561;28;19908;-78
2021/07/08 00:55:27;;;;;;;;;;;;;;;;;;5093986;28;19979;-77
2021/07/08 00:57:54;;;;;;;;;;;;;;;;;;5092399;28;19916;-77
2021/07/08 01:00:20;;;;;;;;;;;;;;;;;;5094429;28;19908;-78
2021/07/08 01:02:46;;;;;;;;;;;;;;;;;;5094469;28;19908;-75
2021/07/08 01:05:12;;;;;;;;;;;;;;;;;;5093961;28;20709;-77
2021/07/08 01:07:37;;;;;;;;;;;;;;;;;;5092940;28;19969;-77
2021/07/08 01:10:03;;;;;;;;;;;;;;;;;;5094062;28;19908;-77
2021/07/08 01:12:29;;;;;;;;;;;;;;;;;;5092693;28;19927;-77
2021/07/08 01:14:55;;;;;;;;;;;;;;;;;;5093706;27;19919;-77
2021/07/08 01:17:22;;;;;;;;;;;;;;;;;;5093749;28;20038;-78
2021/07/08 01:19:49;;;;;;;;;;;;;;;;;;5093180;28;19966;-78
2021/07/08 01:22:15;;;;;;;;;;;;;;;;;;5092446;28;20268;-77
2021/07/08 01:24:41;;;;;;;;;;;;;;;;;;5094093;28;19953;-77
2021/07/08 01:27:06;;;;;;;;;;;;;;;;;;5093452;28;19908;-78
2021/07/08 01:29:32;;;;;;;;;;;;;;;;;;5093712;28;20398;-78
2021/07/08 01:31:58;;;;;;;;;;;;;;;;;;5093671;28;19912;-77
2021/07/08 01:34:24;;;;;;;;;;;;;;;;;;5092929;28;20316;-78
2021/07/08 01:36:50;;;;;;;;;;;;;;;;;;5091097;28;19927;-77
2021/07/08 01:39:17;;;;;;;;;;;;;;;;;;5093621;28;20369;-77
2021/07/08 01:41:43;;;;;;;;;;;;;;;;;;5093034;28;19913;-78
2021/07/08 01:44:11;;;;;;;;;;;;;;;;;;5093115;28;19908;-78
2021/07/08 01:46:38;;;;;;;;;;;;;;;;;;5093174;27;20385;-78
2021/07/08 01:49:04;;;;;;;;;;;;;;;;;;5093570;28;19990;-78
2021/07/08 01:51:30;;;;;;;;;;;;;;;;;;5091340;28;20014;-78
2021/07/08 01:53:56;;;;;;;;;;;;;;;;;;5092020;28;19908;-78
2021/07/08 01:56:21;;;;;;;;;;;;;;;;;;5092161;27;19971;-78
2021/07/08 01:58:48;;;;;;;;;;;;;;;;;;5093308;28;19916;-78
2021/07/08 02:01:14;;;;;;;;;;;;;;;;;;5091834;28;20358;-78
2021/07/08 02:03:41;;;;;;;;;;;;;;;;;;5092190;28;19953;-78
2021/07/08 02:06:07;;;;;;;;;;;;;;;;;;5092874;28;20012;-78
2021/07/08 02:08:35;;;;;;;;;;;;;;;;;;5092728;27;19995;-77
2021/07/08 02:11:01;;;;;;;;;;;;;;;;;;5091686;28;19908;-78
2021/07/08 02:13:27;;;;;;;;;;;;;;;;;;5093011;28;20003;-78
2021/07/08 02:15:52;;;;;;;;;;;;;;;;;;5092890;28;20263;-77
2021/07/08 02:18:18;;;;;;;;;;;;;;;;;;5092752;27;19916;-78
2021/07/08 02:20:44;;;;;;;;;;;;;;;;;;5093178;28;20382;-78
2021/07/08 02:23:10;;;;;;;;;;;;;;;;;;5092938;28;19908;-78
2021/07/08 02:25:36;;;;;;;;;;;;;;;;;;5091142;28;19927;-77
2021/07/08 02:28:02;;;;;;;;;;;;;;;;;;5091116;28;19912;-78
2021/07/08 02:30:28;;;;;;;;;;;;;;;;;;5092613;28;19927;-78
2021/07/08 02:32:54;;;;;;;;;;;;;;;;;;5092750;28;19923;-78
2021/07/08 02:35:20;;;;;;;;;;;;;;;;;;5092407;28;19908;-78
2021/07/08 02:37:45;;;;;;;;;;;;;;;;;;5092163;27;19920;-78
2021/07/08 02:40:11;;;;;;;;;;;;;;;;;;5091488;28;19915;-78
2021/07/08 02:42:37;;;;;;;;;;;;;;;;;;5091810;28;19916;-78
2021/07/08 02:45:03;;;;;;;;;;;;;;;;;;5092330;28;19908;-79
2021/07/08 02:47:29;;;;;;;;;;;;;;;;;;5092523;28;20302;-78
2021/07/08 02:49:55;;;;;;;;;;;;;;;;;;5091683;27;19908;-78
2021/07/08 02:52:21;;;;;;;;;;;;;;;;;;5092304;28;20331;-79
2021/07/08 02:54:47;;;;;;;;;;;;;;;;;;5090525;28;19911;-77
2021/07/08 02:57:12;;;;;;;;;;;;;;;;;;5090330;28;20435;-78
2021/07/08 02:59:38;;;;;;;;;;;;;;;;;;5090591;28;19966;-78
2021/07/08 03:02:04;;;;;;;;;;;;;;;;;;5091055;28;19918;-78
2021/07/08 03:04:30;;;;;;;;;;;;;;;;;;5091052;28;19916;-78
2021/07/08 03:06:56;;;;;;;;;;;;;;;;;;5091920;28;20090;-78
2021/07/08 03:09:22;;;;;;;;;;;;;;;;;;5091757;27;19912;-78
2021/07/08 03:11:48;;;;;;;;;;;;;;;;;;5091448;28;19923;-78
2021/07/08 03:14:14;;;;;;;;;;;;;;;;;;5092007;28;19908;-78
2021/07/08 03:16:39;;;;;;;;;;;;;;;;;;5089457;28;20378;-78
2021/07/08 03:19:05;;;;;;;;;;;;;;;;;;5091308;28;19925;-78
2021/07/08 03:21:31;;;;;;;;;;;;;;;;;;5090001;28;19912;-78
2021/07/08 03:23:57;;;;;;;;;;;;;;;;;;5091801;28;20386;-78
2021/07/08 03:26:23;;;;;;;;;;;;;;;;;;5091815;28;20413;-78
2021/07/08 03:28:49;;;;;;;;;;;;;;;;;;5091909;28;19912;-78
2021/07/08 03:31:15;;;;;;;;;;;;;;;;;;5089966;27;20393;-78
2021/07/08 03:33:41;;;;;;;;;;;;;;;;;;5091832;28;19916;-78
2021/07/08 03:36:07;;;;;;;;;;;;;;;;;;5091089;28;20329;-78
2021/07/08 03:38:33;;;;;;;;;;;;;;;;;;5090876;28;19916;-77
2021/07/08 03:40:58;;;;;;;;;;;;;;;;;;5091184;27;20335;-79
2021/07/08 03:43:24;;;;;;;;;;;;;;;;;;5091120;28;19912;-78
2021/07/08 03:45:50;;;;;;;;;;;;;;;;;;5088059;28;19912;-79
2021/07/08 03:48:16;;;;;;;;;;;;;;;;;;5090206;28;19919;-78
2021/07/08 03:50:42;;;;;;;;;;;;;;;;;;5089570;28;19908;-79
2021/07/08 03:53:08;;;;;;;;;;;;;;;;;;5090906;28;19959;-79
2021/07/08 03:55:34;;;;;;;;;;;;;;;;;;5090904;28;19920;-78
2021/07/08 03:58:00;;;;;;;;;;;;;;;;;;5091134;28;19908;-78
2021/07/08 04:00:26;;;;;;;;;;;;;;;;;;5088521;28;20316;-79
2021/07/08 04:02:52;;;;;;;;;;;;;;;;;;5090137;28;19966;-79
2021/07/08 04:05:18;;;;;;;;;;;;;;;;;;5090354;28;19920;-78
2021/07/08 04:07:43;;;;;;;;;;;;;;;;;;5090836;28;20338;-79
2021/07/08 04:10:09;;;;;;;;;;;;;;;;;;5090864;28;19947;-78
2021/07/08 04:12:35;;;;;;;;;;;;;;;;;;5090801;28;19927;-79
2021/07/08 04:15:01;;;;;;;;;;;;;;;;;;5090960;28;20340;-79
2021/07/08 04:17:27;;;;;;;;;;;;;;;;;;5089707;28;19920;-79
2021/07/08 04:19:53;;;;;;;;;;;;;;;;;;5090004;28;20370;-78
2021/07/08 04:22:19;;;;;;;;;;;;;;;;;;5090772;27;19909;-78
2021/07/08 04:24:45;;;;;;;;;;;;;;;;;;5090920;28;19916;-78
2021/07/08 04:27:10;;;;;;;;;;;;;;;;;;5088782;28;20009;-79
2021/07/08 04:29:36;;;;;;;;;;;;;;;;;;5090789;28;19909;-78
2021/07/08 04:32:02;;;;;;;;;;;;;;;;;;5090480;27;19908;-78
2021/07/08 04:34:28;;;;;;;;;;;;;;;;;;5089798;28;20282;-78
2021/07/08 04:36:54;;;;;;;;;;;;;;;;;;5089550;28;19920;-78
2021/07/08 04:39:20;;;;;;;;;;;;;;;;;;5090111;28;19912;-78
2021/07/08 04:41:47;;;;;;;;;;;;;;;;;;5089209;28;19912;-77
2021/07/08 04:44:13;;;;;;;;;;;;;;;;;;5090889;28;19908;-78
2021/07/08 04:46:39;;;;;;;;;;;;;;;;;;5090717;28;19965;-78
2021/07/08 04:49:05;;;;;;;;;;;;;;;;;;5089845;28;19905;-78
2021/07/08 04:51:31;;;;;;;;;;;;;;;;;;5090586;28;19912;-78
2021/07/08 04:53:56;;;;;;;;;;;;;;;;;;5089725;28;20404;-78
2021/07/08 04:56:22;;;;;;;;;;;;;;;;;;5090577;28;19939;-79
2021/07/08 04:58:48;;;;;;;;;;;;;;;;;;5088516;28;19912;-77
2021/07/08 05:01:14;;;;;;;;;;;;;;;;;;5090120;28;19999;-78
2021/07/08 05:03:40;;;;;;;;;;;;;;;;;;5090331;28;19970;-79
2021/07/08 05:06:06;;;;;;;;;;;;;;;;;;5090373;28;19909;-78
2021/07/08 05:08:32;;;;;;;;;;;;;;;;;;5089962;28;19919;-78
2021/07/08 05:10:58;;;;;;;;;;;;;;;;;;5090713;28;19995;-79
2021/07/08 05:13:24;;;;;;;;;;;;;;;;;;5090260;27;19929;-79
2021/07/08 05:15:49;;;;;;;;;;;;;;;;;;5089186;28;19955;-79
2021/07/08 05:18:15;;;;;;;;;;;;;;;;;;5090332;28;19989;-79
2021/07/08 05:20:41;;;;;;;;;;;;;;;;;;5092490;28;19930;-79
2021/07/08 05:23:24;;;;;;;;;;;;;;;;;;5091942;27;19920;-79
2021/07/08 05:25:50;;;;;;;;;;;;;;;;;;5093858;28;19961;-78
2021/07/08 05:28:16;;;;;;;;;;;;;;;;;;5093801;28;19929;-79
2021/07/08 05:30:42;;;;;;;;;;;;;;;;;;5089685;28;20363;-78
2021/07/08 05:33:08;;;;;;;;;;;;;;;;;;5093003;27;19924;-78
2021/07/08 05:35:34;;;;;;;;;;;;;;;;;;5092665;28;19951;-78
2021/07/08 05:38:00;;;;;;;;;;;;;;;;;;5093843;28;19927;-79
2021/07/08 05:40:26;;;;;;;;;;;;;;;;;;5093747;28;19912;-79
2021/07/08 05:42:51;;;;;;;;;;;;;;;;;;5093735;28;19908;-78
2021/07/08 05:45:17;;;;;;;;;;;;;;;;;;5093089;28;19977;-78
2021/07/08 05:47:43;;;;;;;;;;;;;;;;;;5093393;28;20404;-78
2021/07/08 05:50:09;;;;;;;;;;;;;;;;;;5092352;28;20310;-78
2021/07/08 05:52:35;;;;;;;;;;;;;;;;;;5093188;28;19912;-79
2021/07/08 05:55:01;;;;;;;;;;;;;;;;;;5092249;27;20484;-79
2021/07/08 05:57:27;;;;;;;;;;;;;;;;;;5092026;28;19923;-78
2021/07/08 05:59:54;;;;;;;;;;;;;;;;;;5091984;28;19923;-78
2021/07/08 06:02:20;;;;;;;;;;;;;;;;;;5093355;28;19908;-79
2021/07/08 06:04:46;;;;;;;;;;;;;;;;;;5092971;28;19908;-77
2021/07/08 06:07:12;;;;;;;;;;;;;;;;;;5093131;28;20675;-79
2021/07/08 06:09:38;;;;;;;;;;;;;;;;;;5092323;28;20358;-79
2021/07/08 06:12:04;;;;;;;;;;;;;;;;;;5091932;28;19912;-79
2021/07/08 06:14:30;;;;;;;;;;;;;;;;;;5091940;28;19948;-79
2021/07/08 06:16:55;;;;;;;;;;;;;;;;;;5091979;28;19920;-79
2021/07/08 06:19:21;;;;;;;;;;;;;;;;;;5092776;28;19908;-78
2021/07/08 06:21:50;;;;;;;;;;;;;;;;;;5091317;28;20391;-79
2021/07/08 06:24:16;;;;;;;;;;;;;;;;;;5093067;28;19991;-78
2021/07/08 06:26:42;;;;;;;;;;;;;;;;;;5092610;27;20358;-79
2021/07/08 06:29:08;;;;;;;;;;;;;;;;;;5091174;28;19923;-79
2021/07/08 06:31:34;;;;;;;;;;;;;;;;;;5091535;28;20293;-78
2021/07/08 06:34:00;;;;;;;;;;;;;;;;;;5091342;28;20035;-78
2021/07/08 06:36:25;;;;;;;;;;;;;;;;;;5091506;27;19916;-79
2021/07/08 06:38:51;;;;;;;;;;;;;;;;;;5092683;28;20366;-78
2021/07/08 06:41:17;;;;;;;;;;;;;;;;;;5092152;28;19908;-78
2021/07/08 06:43:44;;;;;;;;;;;;;;;;;;5092594;28;19907;-78
2021/07/08 06:46:14;;;;;;;;;;;;;;;;;;5092061;28;19912;-78
2021/07/08 06:48:40;;;;;;;;;;;;;;;;;;5092320;28;19914;-77
2021/07/08 06:51:06;;;;;;;;;;;;;;;;;;5091332;28;20003;-78
2021/07/08 06:53:32;;;;;;;;;;;;;;;;;;5092362;28;20690;-78
2021/07/08 06:55:57;;;;;;;;;;;;;;;;;;5091388;28;19935;-79
2021/07/08 06:58:23;;;;;;;;;;;;;;;;;;5091102;28;19912;-78
2021/07/08 07:00:49;;;;;;;;;;;;;;;;;;5091863;28;20270;-79
2021/07/08 07:03:15;;;;;;;;;;;;;;;;;;5091621;28;19955;-78
2021/07/08 07:05:41;;;;;;;;;;;;;;;;;;5092194;28;19904;-78
2021/07/08 07:08:07;;;;;;;;;;;;;;;;;;5091869;27;20089;-79
2021/07/08 07:10:33;;;;;;;;;;;;;;;;;;5091819;28;19908;-78
2021/07/08 07:12:59;;;;;;;;;;;;;;;;;;5090930;28;20393;-78
2021/07/08 07:15:25;;;;;;;;;;;;;;;;;;5091043;28;19947;-78
2021/07/08 07:17:51;;;;;;;;;;;;;;;;;;5091244;27;19955;-78
2021/07/08 07:20:17;;;;;;;;;;;;;;;;;;5089252;28;20433;-78
2021/07/08 07:22:45;;;;;;;;;;;;;;;;;;5090414;28;19949;-78
2021/07/08 07:25:11;;;;;;;;;;;;;;;;;;5091650;28;19909;-78
2021/07/08 07:27:36;;;;;;;;;;;;;;;;;;5090000;28;19919;-78
2021/07/08 07:30:05;;;;;;;;;;;;;;;;;;5091180;28;19908;-79
2021/07/08 07:32:31;;;;;;;;;;;;;;;;;;5090209;28;19912;-79
2021/07/08 07:34:56;;;;;;;;;;;;;;;;;;5091473;28;20061;-78
2021/07/08 07:37:22;;;;;;;;;;;;;;;;;;5091177;27;20343;-78
2021/07/08 07:39:48;;;;;;;;;;;;;;;;;;5091249;28;19923;-78
2021/07/08 07:42:14;;;;;;;;;;;;;;;;;;5089750;28;20417;-78
2021/07/08 07:44:44;;;;;;;;;;;;;;;;;;5091371;28;19909;-78
2021/07/08 07:47:10;;;;;;;;;;;;;;;;;;5089084;28;19934;-79
2021/07/08 07:49:36;;;;;;;;;;;;;;;;;;5089857;28;19916;-78
2021/07/08 07:52:02;;;;;;;;;;;;;;;;;;5091073;28;19908;-79
2021/07/08 07:54:29;;;;;;;;;;;;;;;;;;5091177;28;20381;-79
2021/07/08 07:56:54;;;;;;;;;;;;;;;;;;5088634;28;19924;-79
2021/07/08 07:59:20;;;;;;;;;;;;;;;;;;5090851;28;19961;-79
2021/07/08 08:01:46;;;;;;;;;;;;;;;;;;5090513;28;20337;-79
2021/07/08 08:04:12;;;;;;;;;;;;;;;;;;5091174;28;19912;-79
2021/07/08 08:09:23;;;;;;;;;;;;;;;;;;5090715;27;19916;-78
2021/07/08 08:11:49;;;;;;;;;;;;;;;;;;5090117;28;19921;-78
2021/07/08 08:14:14;;;;;;;;;;;;;;;;;;5089620;28;20311;-78
2021/07/08 08:16:40;;;;;;;;;;;;;;;;;;5090048;28;20014;-79
2021/07/08 08:19:06;;;;;;;;;;;;;;;;;;5090975;28;19908;-79
2021/07/08 08:21:32;;;;;;;;;;;;;;;;;;5090680;28;19912;-79
2021/07/08 08:23:58;;;;;;;;;;;;;;;;;;5090456;28;19912;-79
2021/07/08 08:26:26;;;;;;;;;;;;;;;;;;5089221;28;20374;-79
2021/07/08 08:28:52;;;;;;;;;;;;;;;;;;5089405;27;19920;-79
2021/07/08 08:31:18;;;;;;;;;;;;;;;;;;5091164;28;20107;-78
2021/07/08 08:33:44;;;;;;;;;;;;;;;;;;5090811;28;19904;-78
2021/07/08 08:36:10;;;;;;;;;;;;;;;;;;5090524;28;19919;-80
2021/07/08 08:38:35;;;;;;;;;;;;;;;;;;5089469;28;19915;-80
2021/07/08 08:41:01;;;;;;;;;;;;;;;;;;5089407;27;19912;-80
2021/07/08 08:43:27;;;;;;;;;;;;;;;;;;5090560;28;20014;-80
2021/07/08 08:45:53;;;;;;;;;;;;;;;;;;5090650;28;19999;-78
2021/07/08 08:48:19;;;;;;;;;;;;;;;;;;5090431;28;20425;-79
2021/07/08 08:50:45;;;;;;;;;;;;;;;;;;5090494;27;19908;-79
2021/07/08 08:53:11;;;;;;;;;;;;;;;;;;5090919;28;19908;-80
2021/07/08 08:55:37;;;;;;;;;;;;;;;;;;5091130;28;19916;-79
2021/07/08 08:58:03;;;;;;;;;;;;;;;;;;5092837;28;19927;-80
2021/07/08 09:00:30;;;;;;;;;;;;;;;;;;5092936;28;19912;-80
2021/07/08 09:02:56;;;;;;;;;;;;;;;;;;5094210;28;19962;-79
2021/07/08 09:05:22;;;;;;;;;;;;;;;;;;5093263;28;19908;-79
2021/07/08 09:07:48;;;;;;;;;;;;;;;;;;5092552;28;19912;-79
2021/07/08 09:10:14;;;;;;;;;;;;;;;;;;5093383;27;19922;-78
2021/07/08 09:12:40;;;;;;;;;;;;;;;;;;5094330;28;19930;-80
2021/07/08 09:15:06;;;;;;;;;;;;;;;;;;5094161;28;20343;-79
2021/07/08 09:17:31;;;;;;;;;;;;;;;;;;5094536;28;19923;-79
2021/07/08 09:19:57;;;;;;;;;;;;;;;;;;5091858;28;19947;-79
2021/07/08 09:22:23;;;;;;;;;;;;;;;;;;5093344;27;19912;-80
2021/07/08 09:24:49;;;;;;;;;;;;;;;;;;5094026;28;19908;-80
2021/07/08 09:27:15;;;;;;;;;;;;;;;;;;5083658;28;20378;-79
2021/07/08 09:29:41;;;;;;;;;;;;;;;;;;5073773;28;19913;-80
2021/07/08 09:32:07;;;;;;;;;;;;;;;;;;5073484;28;19947;-79
2021/07/08 09:34:33;;;;;;;;;;;;;;;;;;5081594;28;20441;-80
2021/07/08 09:36:59;;;;;;;;;;;;;;;;;;5092474;28;19924;-79
2021/07/08 09:39:24;;;;;;;;;;;;;;;;;;5093769;28;19977;-80
2021/07/08 09:41:50;;;;;;;;;;;;;;;;;;5092971;27;19942;-79
2021/07/08 09:44:16;;;;;;;;;;;;;;;;;;5093645;28;20389;-79
2021/07/08 09:46:43;;;;;;;;;;;;;;;;;;5093168;28;19998;-79
2021/07/08 09:49:09;;;;;;;;;;;;;;;;;;5093552;28;19908;-79
2021/07/08 09:51:35;;;;;;;;;;;;;;;;;;5091240;28;20267;-78
2021/07/08 09:54:11;;;;;;;;;;;;;;;;;;5091209;27;19962;-79
2021/07/08 09:56:49;;;;;;;;;;;;;;;;;;5090097;28;19920;-79
2021/07/08 09:59:15;;;;;;;;;;;;;;;;;;5092929;28;19912;-79
2021/07/08 10:01:41;;;;;;;;;;;;;;;;;;5093423;28;19939;-79
2021/07/08 10:04:07;;;;;;;;;;;;;;;;;;5092968;27;20286;-80
2021/07/08 10:06:33;;;;;;;;;;;;;;;;;;5093045;28;20052;-78
2021/07/08 10:08:59;;;;;;;;;;;;;;;;;;5091203;28;20007;-79
2021/07/08 10:11:25;;;;;;;;;;;;;;;;;;5092624;28;19912;-79
2021/07/08 10:13:51;;;;;;;;;;;;;;;;;;5092936;27;20320;-79
2021/07/08 10:16:19;;;;;;;;;;;;;;;;;;5092976;28;19961;-79
2021/07/08 10:18:45;;;;;;;;;;;;;;;;;;5092153;28;19923;-79
2021/07/08 10:21:11;;;;;;;;;;;;;;;;;;5092573;28;20476;-78
2021/07/08 10:23:37;;;;;;;;;;;;;;;;;;5092603;27;20085;-78
2021/07/08 10:26:03;;;;;;;;;;;;;;;;;;5091889;28;19924;-79
2021/07/08 10:28:30;;;;;;;;;;;;;;;;;;5093132;28;20270;-79
2021/07/08 10:30:56;;;;;;;;;;;;;;;;;;5092493;28;20452;-78
2021/07/08 10:33:22;;;;;;;;;;;;;;;;;;5090898;28;19955;-79
2021/07/08 10:35:48;;;;;;;;;;;;;;;;;;5092676;28;19908;-79
2021/07/08 10:38:14;;;;;;;;;;;;;;;;;;5091286;28;19920;-78
2021/07/08 10:40:40;;;;;;;;;;;;;;;;;;5091216;28;19908;-78
2021/07/08 10:43:06;;;;;;;;;;;;;;;;;;5092457;28;20392;-79
2021/07/08 10:45:32;;;;;;;;;;;;;;;;;;5091900;27;19908;-79
2021/07/08 10:47:58;;;;;;;;;;;;;;;;;;5092287;28;19908;-79
2021/07/08 10:50:23;;;;;;;;;;;;;;;;;;5092472;28;19981;-79
2021/07/08 10:52:49;;;;;;;;;;;;;;;;;;5090772;28;19908;-77
2021/07/08 10:55:15;;;;;;;;;;;;;;;;;;5091303;28;20507;-79
2021/07/08 10:57:41;;;;;;;;;;;;;;;;;;5091553;28;20255;-79
2021/07/08 11:00:07;;;;;;;;;;;;;;;;;;5092153;28;19908;-79
2021/07/08 11:02:33;;;;;;;;;;;;;;;;;;5092161;28;19912;-79
2021/07/08 11:04:59;;;;;;;;;;;;;;;;;;5090558;28;19908;-79
2021/07/08 11:07:27;;;;;;;;;;;;;;;;;;5092079;28;20002;-79
2021/07/08 11:09:52;;;;;;;;;;;;;;;;;;5089138;28;19922;-79
2021/07/08 11:12:18;;;;;;;;;;;;;;;;;;5091982;28;19937;-80
2021/07/08 11:14:44;;;;;;;;;;;;;;;;;;5091730;27;19908;-79
2021/07/08 11:17:11;;;;;;;;;;;;;;;;;;5091168;28;19935;-80
2021/07/08 11:19:38;;;;;;;;;;;;;;;;;;5090120;28;19908;-79
2021/07/08 11:22:09;;;;;;;;;;;;;;;;;;5090486;28;19978;-78
2021/07/08 11:24:34;;;;;;;;;;;;;;;;;;5090379;28;19912;-78
2021/07/08 11:27:00;;;;;;;;;;;;;;;;;;5091771;28;19908;-78
2021/07/08 11:29:26;;;;;;;;;;;;;;;;;;5091417;28;19919;-78
2021/07/08 11:31:52;;;;;;;;;;;;;;;;;;5090400;28;20390;-78
2021/07/08 11:34:18;;;;;;;;;;;;;;;;;;5090668;28;19915;-79
2021/07/08 11:36:44;;;;;;;;;;;;;;;;;;5090874;28;19912;-79
2021/07/08 11:39:10;;;;;;;;;;;;;;;;;;5091482;28;19909;-78
2021/07/08 11:41:39;;;;;;;;;;;;;;;;;;5091381;28;20380;-81
2021/07/08 11:44:05;;;;;;;;;;;;;;;;;;5091369;28;19977;-79
2021/07/08 11:46:31;;;;;;;;;;;;;;;;;;5090568;28;19916;-79
2021/07/08 11:48:57;;;;;;;;;;;;;;;;;;5092312;28;20019;-79
2021/07/08 11:51:26;;;;;;;;;;;;;;;;;;5091517;28;19912;-79
2021/07/08 11:53:52;;;;;;;;;;;;;;;;;;5090955;28;19919;-79
2021/07/08 11:56:18;;;;;;;;;;;;;;;;;;5089827;28;19920;-79
2021/07/08 11:58:44;;;;;;;;;;;;;;;;;;5091550;28;20335;-80
2021/07/08 12:01:11;;;;;;;;;;;;;;;;;;5089784;28;20105;-79
2021/07/08 12:03:40;;;;;;;;;;;;;;;;;;5091902;28;20042;-79
2021/07/08 12:06:06;;;;;;;;;;;;;;;;;;5091119;27;19905;-79
2021/07/08 12:08:32;;;;;;;;;;;;;;;;;;5091248;28;20396;-80
2021/07/08 12:11:06;;;;;;;;;;;;;;;;;;5089684;28;20011;-80
2021/07/08 12:13:32;;;;;;;;;;;;;;;;;;5091509;28;19904;-79
2021/07/08 12:15:58;;;;;;;;;;;;;;;;;;5088843;28;19991;-79
2021/07/08 12:18:24;;;;;;;;;;;;;;;;;;5090094;28;19912;-78
2021/07/08 12:20:50;;;;;;;;;;;;;;;;;;5089240;28;20029;-80
2021/07/08 12:23:16;;;;;;;;;;;;;;;;;;5093213;28;19919;-80
2021/07/08 12:25:42;;;;;;;;;;;;;;;;;;5092278;28;19915;-79
2021/07/08 12:28:07;;;;;;;;;;;;;;;;;;5095205;28;20329;-79
2021/07/08 12:30:33;;;;;;;;;;;;;;;;;;5100529;28;20002;-80
2021/07/08 12:32:59;;;;;;;;;;;;;;;;;;5098703;28;19919;-79
2021/07/08 12:35:25;;;;;;;;;;;;;;;;;;5097948;28;19919;-78
2021/07/08 12:37:51;;;;;;;;;;;;;;;;;;5089820;28;20396;-80
2021/07/08 12:40:17;;;;;;;;;;;;;;;;;;5100256;28;20003;-80
2021/07/08 12:42:43;;;;;;;;;;;;;;;;;;5097489;28;19952;-79
2021/07/08 12:45:09;;;;;;;;;;;;;;;;;;5095436;28;20300;-80
2021/07/08 12:47:35;;;;;;;;;;;;;;;;;;5095759;28;19908;-78
2021/07/08 12:50:01;;;;;;;;;;;;;;;;;;5095421;28;20385;-79
2021/07/08 12:52:27;;;;;;;;;;;;;;;;;;5093356;28;19947;-79
2021/07/08 12:54:52;;;;;;;;;;;;;;;;;;5094764;28;19913;-80
2021/07/08 12:57:20;;;;;;;;;;;;;;;;;;5095127;28;20362;-79
2021/07/08 12:59:46;;;;;;;;;;;;;;;;;;5096079;27;19938;-79
2021/07/08 13:02:12;;;;;;;;;;;;;;;;;;5093624;28;19950;-79
2021/07/08 13:04:38;;;;;;;;;;;;;;;;;;5093676;28;19908;-79
2021/07/08 13:07:04;;;;;;;;;;;;;;;;;;5093869;28;19912;-80
2021/07/08 13:09:30;;;;;;;;;;;;;;;;;;5094720;27;19938;-79
2021/07/08 13:11:55;;;;;;;;;;;;;;;;;;5094783;28;19908;-79
2021/07/08 13:14:22;;;;;;;;;;;;;;;;;;5094161;28;19908;-79
2021/07/08 13:16:48;;;;;;;;;;;;;;;;;;5094877;28;19923;-78
2021/07/08 13:19:14;;;;;;;;;;;;;;;;;;5094947;27;20002;-78
2021/07/08 13:21:40;;;;;;;;;;;;;;;;;;5094677;28;19965;-78
2021/07/08 13:24:06;;;;;;;;;;;;;;;;;;5095817;28;19912;-78
2021/07/08 13:26:32;;;;;;;;;;;;;;;;;;5094351;28;20280;-79
2021/07/08 13:28:58;;;;;;;;;;;;;;;;;;5093906;27;19948;-78
2021/07/08 13:31:23;;;;;;;;;;;;;;;;;;5091241;28;19912;-79
2021/07/08 13:33:49;;;;;;;;;;;;;;;;;;5093148;28;19915;-79
2021/07/08 13:36:15;;;;;;;;;;;;;;;;;;5092296;28;19916;-78
2021/07/08 13:38:41;;;;;;;;;;;;;;;;;;5092489;28;19915;-79
2021/07/08 13:41:07;;;;;;;;;;;;;;;;;;5092666;28;19913;-79
2021/07/08 13:43:33;;;;;;;;;;;;;;;;;;5091976;28;19908;-78
2021/07/08 13:45:59;;;;;;;;;;;;;;;;;;5093283;28;19922;-78
2021/07/08 13:48:26;;;;;;;;;;;;;;;;;;5092340;28;20270;-79
2021/07/08 13:50:51;;;;;;;;;;;;;;;;;;5092235;27;20367;-79
2021/07/08 13:53:17;;;;;;;;;;;;;;;;;;5093558;28;19951;-79
2021/07/08 13:55:44;;;;;;;;;;;;;;;;;;5092180;28;19927;-77
2021/07/08 13:58:10;;;;;;;;;;;;;;;;;;5091945;28;19920;-78
2021/07/08 14:00:36;;;;;;;;;;;;;;;;;;5093041;28;19918;-78
2021/07/08 14:03:02;;;;;;;;;;;;;;;;;;5093169;28;20388;-79
2021/07/08 14:05:27;;;;;;;;;;;;;;;;;;5091798;28;20012;-78
2021/07/08 14:07:53;;;;;;;;;;;;;;;;;;5092742;28;19916;-78
2021/07/08 14:10:19;;;;;;;;;;;;;;;;;;5092959;28;19924;-78
2021/07/08 14:12:45;;;;;;;;;;;;;;;;;;5093352;28;19908;-78
2021/07/08 14:15:11;;;;;;;;;;;;;;;;;;5092086;28;20243;-79
2021/07/08 14:17:37;;;;;;;;;;;;;;;;;;5092449;28;19961;-79
2021/07/08 14:20:03;;;;;;;;;;;;;;;;;;5092625;28;19912;-79
2021/07/08 14:22:29;;;;;;;;;;;;;;;;;;5092680;27;19999;-79
2021/07/08 14:24:55;;;;;;;;;;;;;;;;;;5091598;28;19912;-79
2021/07/08 14:27:21;;;;;;;;;;;;;;;;;;5093008;28;19915;-79
2021/07/08 14:29:47;;;;;;;;;;;;;;;;;;5092966;28;19978;-79
2021/07/08 14:32:12;;;;;;;;;;;;;;;;;;5092250;28;20395;-77
2021/07/08 14:34:38;;;;;;;;;;;;;;;;;;5092186;28;19950;-79
2021/07/08 14:37:04;;;;;;;;;;;;;;;;;;5092687;28;19916;-79
2021/07/08 14:39:30;;;;;;;;;;;;;;;;;;5091588;28;19924;-78
2021/07/08 14:42:00;;;;;;;;;;;;;;;;;;5090551;28;19912;-79
2021/07/08 14:44:31;;;;;;;;;;;;;;;;;;5092650;28;19909;-79
2021/07/08 14:46:58;;;;;;;;;;;;;;;;;;5092460;28;19908;-80
2021/07/08 14:49:24;;;;;;;;;;;;;;;;;;5091032;28;19916;-80
2021/07/08 14:51:50;;;;;;;;;;;;;;;;;;5092046;28;19912;-77
2021/07/08 14:54:16;;;;;;;;;;;;;;;;;;5091735;28;19914;-79
2021/07/08 14:56:41;;;;;;;;;;;;;;;;;;5092047;28;19920;-79
2021/07/08 14:59:07;;;;;;;;;;;;;;;;;;5090896;28;19908;-79
2021/07/08 15:01:33;;;;;;;;;;;;;;;;;;5092171;28;19908;-78
2021/07/08 15:03:59;;;;;;;;;;;;;;;;;;5090302;28;19948;-78
2021/07/08 15:06:25;;;;;;;;;;;;;;;;;;5091023;28;19960;-79
2021/07/08 15:08:51;;;;;;;;;;;;;;;;;;5091762;28;19951;-78
2021/07/08 15:11:17;;;;;;;;;;;;;;;;;;5091676;28;19922;-78
2021/07/08 15:13:43;;;;;;;;;;;;;;;;;;5090467;28;20266;-78
2021/07/08 15:16:09;;;;;;;;;;;;;;;;;;5091866;28;19996;-78
2021/07/08 15:18:35;;;;;;;;;;;;;;;;;;5091810;28;19908;-78
2021/07/08 15:21:01;;;;;;;;;;;;;;;;;;5090606;28;19920;-78
2021/07/08 15:23:27;;;;;;;;;;;;;;;;;;5091307;27;20274;-77
2021/07/08 15:25:53;;;;;;;;;;;;;;;;;;5091755;28;20027;-77
2021/07/08 15:28:19;;;;;;;;;;;;;;;;;;5091266;28;19908;-79
2021/07/08 15:30:45;;;;;;;;;;;;;;;;;;5091786;28;20368;-77
2021/07/08 15:33:11;;;;;;;;;;;;;;;;;;5090179;27;20007;-76
2021/07/08 15:35:37;;;;;;;;;;;;;;;;;;5090406;28;19912;-73
2021/07/08 15:38:02;;;;;;;;;;;;;;;;;;5091182;28;19927;-74
2021/07/08 15:40:28;;;;;;;;;;;;;;;;;;5084763;28;20010;-73
2021/07/08 15:42:54;;;;;;;;;;;;;;;;;;5089616;28;19916;-73
2021/07/08 15:45:20;;;;;;;;;;;;;;;;;;5088688;27;20321;-74
2021/07/08 15:47:46;;;;;;;;;;;;;;;;;;5090288;28;19918;-73
2021/07/08 15:50:12;;;;;;;;;;;;;;;;;;5087782;28;19912;-74
2021/07/08 15:52:38;;;;;;;;;;;;;;;;;;5089847;28;19966;-74
2021/07/08 15:55:05;;;;;;;;;;;;;;;;;;5090587;28;19919;-74
2021/07/08 15:57:32;;;;;;;;;;;;;;;;;;5090173;28;20350;-73
2021/07/08 15:59:58;;;;;;;;;;;;;;;;;;5095805;28;19912;-74
2021/07/08 16:02:25;;;;;;;;;;;;;;;;;;5089269;28;19935;-74
2021/07/08 16:04:52;;;;;;;;;;;;;;;;;;5088676;27;19955;-74
2021/07/08 16:07:18;;;;;;;;;;;;;;;;;;5091148;28;19914;-74
2021/07/08 16:09:44;;;;;;;;;;;;;;;;;;5089998;28;19912;-74
2021/07/08 16:12:10;;;;;;;;;;;;;;;;;;5090829;28;20358;-73
2021/07/08 16:14:36;;;;;;;;;;;;;;;;;;5090732;27;20354;-73
2021/07/08 16:17:02;;;;;;;;;;;;;;;;;;5089965;28;19917;-73
2021/07/08 16:19:28;;;;;;;;;;;;;;;;;;5090499;28;19922;-74
2021/07/08 16:21:54;;;;;;;;;;;;;;;;;;5091154;28;19995;-74
2021/07/08 16:24:20;;;;;;;;;;;;;;;;;;5090978;28;19912;-75
2021/07/08 16:26:46;;;;;;;;;;;;;;;;;;5090776;27;20003;-76
2021/07/08 16:29:12;;;;;;;;;;;;;;;;;;5090861;28;19905;-75
2021/07/08 16:31:37;;;;;;;;;;;;;;;;;;5089996;28;19912;-74
2021/07/08 16:34:03;;;;;;;;;;;;;;;;;;5090869;28;20506;-74
2021/07/08 16:36:29;;;;;;;;;;;;;;;;;;5087629;27;19931;-74
2021/07/08 16:38:55;;;;;;;;;;;;;;;;;;5090752;28;19938;-73
2021/07/08 16:41:21;;;;;;;;;;;;;;;;;;5090951;28;19908;-74